Wetterdaten: aktuell Dienstag, 25.09.2018 02:00
Datum Zeit Temperatur Luftfeuchte Luftdruck Regen Wind Richtung Richtung Taupunkt Windchill
25.09.2018 02:00 6,6 C 66 % 1033 hPa 0,0 mm 0,2 km/h (0 Bft) N 355 0,7 C 6,6 C
25.09.2018 01:55 6,6 C 66 % 1033 hPa 0,0 mm 0,4 km/h (0 Bft) N 355 0,7 C 6,6 C
25.09.2018 01:50 6,6 C 66 % 1033 hPa 0,0 mm 0,2 km/h (0 Bft) N-NW 330 0,7 C 6,6 C
25.09.2018 01:46 6,6 C 66 % 1033 hPa 0,0 mm 1,2 km/h (1 Bft) N-NW22.5 330 0,7 C 6,6 C
25.09.2018 01:41 6,7 C 66 % 1033 hPa 0,0 mm 5,4 km/h (1 Bft) NW 305 0,8 C 6,7 C
25.09.2018 01:36 6,8 C 64 % 1033 hPa 0,0 mm 4,5 km/h (1 Bft) NW22.5 325 0,5 C 6,8 C
25.09.2018 01:31 6,8 C 64 % 1033 hPa 0,0 mm 4,5 km/h (1 Bft) NW22.5 320 0,5 C 6,8 C
25.09.2018 01:26 6,9 C 63 % 1033 hPa 0,0 mm 3,4 km/h (1 Bft) NW22.5 315 0,4 C 6,9 C
25.09.2018 01:20 6,9 C 63 % 1033 hPa 0,0 mm 7,3 km/h (2 Bft) NW22.5 320 0,4 C 6,2 C
25.09.2018 01:15 7,1 C 61 % 1033 hPa 0,0 mm 7,3 km/h (2 Bft) NW22.5 320 0,1 C 6,4 C
25.09.2018 01:10 7,1 C 61 % 1033 hPa 0,0 mm 10,3 km/h (2 Bft) N-NW45 335 0,1 C 4,2 C
25.09.2018 01:05 7,2 C 60 % 1033 hPa 0,0 mm 5,5 km/h (1 Bft) NW22.5 315 -0,0 C 7,2 C
25.09.2018 01:00 7,2 C 60 % 1033 hPa 0,0 mm 1,4 km/h (1 Bft) N22.5 350 -0,0 C 7,2 C
25.09.2018 00:55 7,3 C 59 % 1033 hPa 0,0 mm 1,3 km/h (1 Bft) N-NW 335 -0,2 C 7,3 C
25.09.2018 00:50 7,4 C 58 % 1033 hPa 0,0 mm 3,9 km/h (1 Bft) NW22.5 320 -0,3 C 7,4 C
25.09.2018 00:45 7,6 C 56 % 1033 hPa 0,0 mm 0,4 km/h (0 Bft) NW 305 -0,6 C 7,6 C
25.09.2018 00:40 7,7 C 55 % 1033 hPa 0,0 mm 1,8 km/h (1 Bft) NW 315 -0,8 C 7,7 C
25.09.2018 00:35 7,7 C 54 % 1033 hPa 0,0 mm 3,0 km/h (1 Bft) NW 315 -1,0 C 7,7 C
25.09.2018 00:31 7,8 C 53 % 1033 hPa 0,0 mm 4,4 km/h (1 Bft) NW 315 -1,2 C 7,8 C
25.09.2018 00:26 7,9 C 53 % 1033 hPa 0,0 mm 0,1 km/h (0 Bft) NW 320 -1,1 C 7,9 C
25.09.2018 00:21 7,9 C 53 % 1033 hPa 0,0 mm 0,0 km/h (0 Bft) NW 320 -1,1 C 7,9 C
25.09.2018 00:16 8,0 C 52 % 1033 hPa 0,0 mm 0,0 km/h (0 Bft) NW 320 -1,2 C 8,0 C
25.09.2018 00:11 8,1 C 51 % 1033 hPa 0,0 mm 0,0 km/h (0 Bft) NW 320 -1,4 C 8,1 C
25.09.2018 00:05 8,2 C 51 % 1033 hPa 0,0 mm 0,7 km/h (0 Bft) NW 320 -1,3 C 8,2 C
25.09.2018 00:00 8,2 C 51 % 1033 hPa 0,0 mm 1,8 km/h (1 Bft) NW 325 -1,3 C 8,2 C
24.09.2018 23:55 8,4 C 50 % 1033 hPa 0,0 mm 0,4 km/h (0 Bft) NW 325 -1,4 C 8,4 C
24.09.2018 23:50 8,4 C 49 % 1033 hPa 0,0 mm 0,0 km/h (0 Bft) NW 325 -1,7 C 8,4 C
24.09.2018 23:45 8,5 C 49 % 1033 hPa 0,0 mm 0,1 km/h (0 Bft) NW 325 -1,6 C 8,5 C
24.09.2018 23:40 8,5 C 49 % 1033 hPa 0,0 mm 0,6 km/h (0 Bft) NW 325 -1,6 C 8,5 C
24.09.2018 23:36 8,4 C 49 % 1033 hPa 0,0 mm 4,5 km/h (1 Bft) NW 325 -1,7 C 8,4 C
24.09.2018 23:31 8,4 C 49 % 1033 hPa 0,0 mm 4,3 km/h (1 Bft) NW22.5 325 -1,7 C 8,4 C
24.09.2018 23:26 8,3 C 50 % 1033 hPa 0,0 mm 5,8 km/h (2 Bft) NW 320 -1,5 C 8,3 C
24.09.2018 23:21 8,2 C 51 % 1033 hPa 0,0 mm 6,5 km/h (2 Bft) NW 320 -1,3 C 8,1 C
24.09.2018 23:16 8,2 C 51 % 1033 hPa 0,0 mm 5,7 km/h (1 Bft) NW22.5 325 -1,3 C 8,2 C
24.09.2018 23:10 8,2 C 51 % 1033 hPa 0,0 mm 2,1 km/h (1 Bft) N-NW 340 -1,3 C 8,2 C
24.09.2018 23:05 8,2 C 51 % 1033 hPa 0,0 mm 5,1 km/h (1 Bft) N-NW 340 -1,3 C 8,2 C
24.09.2018 23:00 8,2 C 51 % 1033 hPa 0,0 mm 0,3 km/h (0 Bft) N-NW 340 -1,3 C 8,2 C
24.09.2018 22:55 8,2 C 51 % 1033 hPa 0,0 mm 4,5 km/h (1 Bft) N-NW 340 -1,3 C 8,2 C
24.09.2018 22:50 8,2 C 51 % 1033 hPa 0,0 mm 6,2 km/h (2 Bft) N-NW 345 -1,3 C 8,2 C
24.09.2018 22:45 8,2 C 51 % 1033 hPa 0,0 mm 0,4 km/h (0 Bft) NW 315 -1,3 C 8,2 C
24.09.2018 22:40 8,2 C 51 % 1033 hPa 0,0 mm 3,2 km/h (1 Bft) NW 315 -1,3 C 8,2 C
24.09.2018 22:35 8,3 C 51 % 1033 hPa 0,0 mm 0,0 km/h (0 Bft) NW 315 -1,2 C 8,3 C
24.09.2018 22:30 8,3 C 51 % 1033 hPa 0,0 mm 0,0 km/h (0 Bft) NW 315 -1,2 C 8,3 C
24.09.2018 22:25 8,3 C 50 % 1033 hPa 0,0 mm 0,1 km/h (0 Bft) NW 315 -1,5 C 8,3 C
24.09.2018 22:20 8,3 C 49 % 1033 hPa 0,0 mm 0,0 km/h (0 Bft) NW 315 -1,8 C 8,3 C
24.09.2018 22:15 8,2 C 49 % 1033 hPa 0,0 mm 0,0 km/h (0 Bft) NW 315 -1,9 C 8,2 C
24.09.2018 22:11 8,2 C 49 % 1033 hPa 0,0 mm 0,0 km/h (0 Bft) NW 315 -1,9 C 8,2 C
24.09.2018 22:06 8,1 C 49 % 1033 hPa 0,0 mm 0,1 km/h (0 Bft) NW 315 -2,0 C 8,1 C
24.09.2018 22:01 8,2 C 47 % 1033 hPa 0,0 mm 0,0 km/h (0 Bft) NW 315 -2,4 C 8,2 C
24.09.2018 21:56 8,2 C 47 % 1032 hPa 0,0 mm 0,0 km/h (0 Bft) NW 315 -2,4 C 8,2 C
24.09.2018 21:51 8,3 C 46 % 1032 hPa 0,0 mm 0,0 km/h (0 Bft) NW 315 -2,6 C 8,3 C
24.09.2018 21:45 8,4 C 46 % 1032 hPa 0,0 mm 0,0 km/h (0 Bft) NW 315 -2,5 C 8,4 C
24.09.2018 21:40 8,4 C 45 % 1032 hPa 0,0 mm 0,1 km/h (0 Bft) NW 315 -2,8 C 8,4 C
24.09.2018 21:35 8,5 C 45 % 1033 hPa 0,0 mm 0,4 km/h (0 Bft) NW 315 -2,7 C 8,5 C
24.09.2018 21:30 8,5 C 45 % 1032 hPa 0,0 mm 0,6 km/h (0 Bft) NW 315 -2,7 C 8,5 C
24.09.2018 21:25 8,5 C 45 % 1032 hPa 0,0 mm 0,2 km/h (0 Bft) NW 315 -2,7 C 8,5 C
24.09.2018 21:20 8,5 C 45 % 1032 hPa 0,0 mm 0,2 km/h (0 Bft) NW 315 -2,7 C 8,5 C
24.09.2018 21:15 8,6 C 45 % 1032 hPa 0,0 mm 0,4 km/h (0 Bft) NW 315 -2,6 C 8,6 C
24.09.2018 21:10 8,6 C 45 % 1032 hPa 0,0 mm 0,3 km/h (0 Bft) NW 315 -2,6 C 8,6 C
24.09.2018 21:05 8,7 C 45 % 1032 hPa 0,0 mm 0,3 km/h (0 Bft) NW 315 -2,6 C 8,7 C
24.09.2018 21:00 8,7 C 45 % 1032 hPa 0,0 mm 1,3 km/h (1 Bft) NW 315 -2,6 C 8,7 C
24.09.2018 20:56 8,8 C 45 % 1032 hPa 0,0 mm 0,1 km/h (0 Bft) NW 315 -2,5 C 8,8 C
24.09.2018 20:51 8,9 C 45 % 1032 hPa 0,0 mm 0,1 km/h (0 Bft) NW 315 -2,4 C 8,9 C
24.09.2018 20:46 8,9 C 44 % 1032 hPa 0,0 mm 0,0 km/h (0 Bft) NW 315 -2,7 C 8,9 C
24.09.2018 20:41 9,1 C 42 % 1032 hPa 0,0 mm 0,0 km/h (0 Bft) NW 315 -3,1 C 9,1 C
24.09.2018 20:35 9,2 C 41 % 1032 hPa 0,0 mm 0,0 km/h (0 Bft) NW 315 -3,4 C 9,2 C
24.09.2018 20:30 9,2 C 41 % 1032 hPa 0,0 mm 0,0 km/h (0 Bft) NW 315 -3,4 C 9,2 C
24.09.2018 20:25 9,4 C 41 % 1032 hPa 0,0 mm 0,0 km/h (0 Bft) NW 315 -3,2 C 9,4 C
24.09.2018 20:20 9,5 C 41 % 1032 hPa 0,0 mm 0,0 km/h (0 Bft) NW 315 -3,1 C 9,5 C
24.09.2018 20:15 9,5 C 41 % 1032 hPa 0,0 mm 0,1 km/h (0 Bft) NW 315 -3,1 C 9,5 C
24.09.2018 20:10 9,6 C 40 % 1032 hPa 0,0 mm 2,2 km/h (1 Bft) NW 315 -3,3 C 9,6 C
24.09.2018 20:05 9,7 C 40 % 1032 hPa 0,0 mm 0,6 km/h (0 Bft) NW 315 -3,2 C 9,7 C
24.09.2018 20:00 9,8 C 40 % 1032 hPa 0,0 mm 1,3 km/h (1 Bft) NW 315 -3,1 C 9,8 C
24.09.2018 19:55 9,9 C 40 % 1032 hPa 0,0 mm 0,0 km/h (0 Bft) NW 320 -3,1 C 9,9 C
24.09.2018 19:50 10,1 C 37 % 1032 hPa 0,0 mm 0,3 km/h (0 Bft) NW 320 -3,9 C 10,1 C
24.09.2018 19:46 10,2 C 36 % 1031 hPa 0,0 mm 0,1 km/h (0 Bft) NW 315 -4,2 C 10,2 C
24.09.2018 19:41 10,3 C 36 % 1031 hPa 0,0 mm 2,7 km/h (1 Bft) NW 315 -4,1 C 10,3 C
24.09.2018 19:36 10,5 C 36 % 1031 hPa 0,0 mm 0,1 km/h (0 Bft) NW 315 -3,9 C 10,5 C
24.09.2018 19:31 10,7 C 36 % 1031 hPa 0,0 mm 0,0 km/h (0 Bft) NW 315 -3,7 C 10,7 C
24.09.2018 19:25 10,8 C 35 % 1031 hPa 0,0 mm 0,0 km/h (0 Bft) NW 315 -4,0 C 10,8 C
24.09.2018 19:20 10,9 C 35 % 1031 hPa 0,0 mm 0,3 km/h (0 Bft) NW 315 -3,9 C 10,9 C
24.09.2018 19:15 11,0 C 34 % 1031 hPa 0,0 mm 2,8 km/h (1 Bft) NW 315 -4,2 C 11,0 C
24.09.2018 19:10 11,1 C 34 % 1031 hPa 0,0 mm 3,3 km/h (1 Bft) NW 315 -4,2 C 11,1 C
24.09.2018 19:05 11,1 C 34 % 1031 hPa 0,0 mm 0,0 km/h (0 Bft) NW 315 -4,2 C 11,1 C
24.09.2018 19:00 11,2 C 34 % 1031 hPa 0,0 mm 0,0 km/h (0 Bft) NW 315 -4,1 C 11,2 C
24.09.2018 18:55 11,4 C 34 % 1031 hPa 0,0 mm 0,0 km/h (0 Bft) NW 315 -3,9 C 11,4 C
24.09.2018 18:50 11,4 C 33 % 1031 hPa 0,0 mm 0,0 km/h (0 Bft) NW 315 -4,3 C 11,4 C
24.09.2018 18:45 11,5 C 32 % 1031 hPa 0,0 mm 0,1 km/h (0 Bft) NW 315 -4,6 C 11,5 C
24.09.2018 18:40 11,7 C 31 % 1031 hPa 0,0 mm 2,0 km/h (1 Bft) NW 315 -4,8 C 11,7 C
24.09.2018 18:35 11,7 C 31 % 1031 hPa 0,0 mm 0,6 km/h (0 Bft) NW 315 -4,8 C 11,7 C
24.09.2018 18:30 11,8 C 29 % 1031 hPa 0,0 mm 7,2 km/h (2 Bft) NW22.5 320 -5,6 C 11,3 C
24.09.2018 18:25 11,9 C 29 % 1031 hPa 0,0 mm 4,0 km/h (1 Bft) NW 325 -5,6 C 11,9 C
24.09.2018 18:20 12,0 C 28 % 1031 hPa 0,0 mm 7,8 km/h (2 Bft) N-NW22.5 330 -5,9 C 11,1 C
24.09.2018 18:15 12,0 C 28 % 1031 hPa 0,0 mm 8,0 km/h (2 Bft) N-NW22.5 330 -5,9 C 11,0 C
24.09.2018 18:10 12,1 C 26 % 1031 hPa 0,0 mm 6,8 km/h (2 Bft) N-NW22.5 330 -6,8 C 11,8 C
24.09.2018 18:05 12,4 C 26 % 1031 hPa 0,0 mm 10,5 km/h (2 Bft) NW22.5 320 -6,5 C 10,0 C
24.09.2018 18:00 12,3 C 28 % 1031 hPa 0,0 mm 11,3 km/h (2 Bft) NW22.5 310 -5,7 C 9,5 C
24.09.2018 17:55 12,3 C 28 % 1031 hPa 0,0 mm 1,8 km/h (1 Bft) N-NW45 340 -5,7 C 12,3 C
24.09.2018 17:50 12,2 C 28 % 1031 hPa 0,0 mm 1,8 km/h (1 Bft) N-NW45 340 -5,8 C 12,2 C
24.09.2018 17:45 12,2 C 28 % 1031 hPa 0,0 mm 1,8 km/h (1 Bft) N-NW45 340 -5,8 C 12,2 C
24.09.2018 17:40 12,3 C 26 % 1031 hPa 0,0 mm 9,0 km/h (2 Bft) NW22.5 325 -6,6 C 10,7 C
24.09.2018 17:35 12,5 C 27 % 1031 hPa 0,0 mm 7,6 km/h (2 Bft) N-NW 330 -6,0 C 11,7 C
24.09.2018 17:30 12,5 C 27 % 1031 hPa 0,0 mm 9,8 km/h (2 Bft) NW67.5 325 -6,0 C 10,5 C
24.09.2018 17:25 12,7 C 26 % 1031 hPa 0,0 mm 9,4 km/h (2 Bft) NW45 310 -6,3 C 10,9 C
24.09.2018 17:20 13,1 C 24 % 1031 hPa 0,0 mm 6,1 km/h (2 Bft) NW45 305 -7,0 C 13,1 C
24.09.2018 17:15 13,1 C 24 % 1031 hPa 0,0 mm 9,0 km/h (2 Bft) NW22.5 305 -7,0 C 11,5 C
24.09.2018 17:10 13,0 C 25 % 1031 hPa 0,0 mm 9,0 km/h (2 Bft) NW22.5 320 -6,5 C 11,4 C
24.09.2018 17:05 13,0 C 23 % 1031 hPa 0,0 mm 12,8 km/h (3 Bft) NW45 315 -7,6 C 9,6 C
24.09.2018 17:00 13,1 C 25 % 1031 hPa 0,0 mm 9,8 km/h (2 Bft) NW22.5 310 -6,5 C 11,1 C
24.09.2018 16:55 13,1 C 24 % 1031 hPa 0,0 mm 10,1 km/h (2 Bft) N-NW45 340 -7,0 C 11,0 C
24.09.2018 16:50 13,1 C 28 % 1031 hPa 0,0 mm 10,8 km/h (2 Bft) W-NW22.5 300 -5,0 C 10,6 C
24.09.2018 16:45 12,9 C 26 % 1031 hPa 0,0 mm 12,9 km/h (3 Bft) NW45 305 -6,1 C 9,5 C
24.09.2018 16:40 12,8 C 24 % 1031 hPa 0,0 mm 14,7 km/h (3 Bft) NW67.5 325 -7,2 C 8,6 C
24.09.2018 16:35 12,8 C 27 % 1031 hPa 0,0 mm 11,6 km/h (2 Bft) NW22.5 315 -5,7 C 9,9 C
24.09.2018 16:30 12,8 C 25 % 1031 hPa 0,0 mm 7,1 km/h (2 Bft) NW45 315 -6,7 C 12,4 C
24.09.2018 16:25 12,8 C 26 % 1031 hPa 0,0 mm 11,1 km/h (2 Bft) N-NW45 335 -6,2 C 10,1 C
24.09.2018 16:20 12,6 C 26 % 1031 hPa 0,0 mm 7,8 km/h (2 Bft) N-NW45 335 -6,4 C 11,7 C
24.09.2018 16:15 12,6 C 26 % 1031 hPa 0,0 mm 12,0 km/h (2 Bft) NW67.5 325 -6,4 C 9,5 C
24.09.2018 16:10 12,8 C 27 % 1031 hPa 0,0 mm 6,4 km/h (2 Bft) N-NW45 345 -5,7 C 12,8 C
24.09.2018 16:05 13,1 C 25 % 1031 hPa 0,0 mm 11,5 km/h (2 Bft) NW22.5 310 -6,5 C 10,3 C
24.09.2018 16:00 13,0 C 26 % 1031 hPa 0,0 mm 9,7 km/h (2 Bft) NW67.5 325 -6,0 C 11,1 C
24.09.2018 15:55 13,0 C 27 % 1031 hPa 0,0 mm 10,3 km/h (2 Bft) N67.5 355 -5,5 C 10,8 C
24.09.2018 15:50 13,0 C 28 % 1031 hPa 0,0 mm 5,6 km/h (1 Bft) N-NW22.5 340 -5,1 C 13,0 C
24.09.2018 15:45 13,1 C 27 % 1031 hPa 0,0 mm 13,7 km/h (3 Bft) N-NW67.5 335 -5,5 C 9,4 C
24.09.2018 15:40 13,3 C 28 % 1031 hPa 0,0 mm 11,1 km/h (2 Bft) W-NW 295 -4,8 C 10,7 C
24.09.2018 15:35 13,3 C 28 % 1031 hPa 0,0 mm 10,7 km/h (2 Bft) NW22.5 325 -4,8 C 10,9 C
24.09.2018 15:30 13,3 C 25 % 1031 hPa 0,0 mm 11,1 km/h (2 Bft) SW67.5 220 -6,3 C 10,7 C
24.09.2018 15:25 13,2 C 24 % 1031 hPa 0,0 mm 11,1 km/h (2 Bft) SW67.5 220 -6,9 C 10,6 C
24.09.2018 15:21 13,1 C 24 % 1031 hPa 0,0 mm 5,2 km/h (1 Bft) S-SW22.5 205 -7,0 C 13,1 C
24.09.2018 15:16 13,3 C 24 % 1031 hPa 0,0 mm 5,9 km/h (2 Bft) N-NW67.5 345 -6,8 C 13,3 C
24.09.2018 15:11 13,6 C 25 % 1031 hPa 0,0 mm 10,1 km/h (2 Bft) SW67.5 230 -6,0 C 11,5 C
24.09.2018 15:06 13,7 C 26 % 1031 hPa 0,0 mm 10,1 km/h (2 Bft) SW67.5 230 -5,4 C 11,6 C
24.09.2018 15:01 13,4 C 28 % 1031 hPa 0,0 mm 11,0 km/h (2 Bft) N-NW67.5 330 -4,7 C 10,9 C
24.09.2018 14:56 13,5 C 29 % 1031 hPa 0,0 mm 6,9 km/h (2 Bft) N-NW67.5 345 -4,2 C 13,2 C
24.09.2018 14:51 13,4 C 25 % 1031 hPa 0,0 mm 17,0 km/h (3 Bft) NW67.5 315 -6,2 C 8,6 C
24.09.2018 14:46 13,5 C 24 % 1031 hPa 0,0 mm 2,8 km/h (1 Bft) NO67.5 55 -6,7 C 13,5 C
24.09.2018 14:41 13,3 C 26 % 1031 hPa 0,0 mm 6,2 km/h (2 Bft) N-NW 345 -5,8 C 13,3 C
24.09.2018 14:36 13,6 C 25 % 1031 hPa 0,0 mm 14,1 km/h (3 Bft) N45 350 -6,0 C 9,8 C
24.09.2018 14:31 13,6 C 25 % 1031 hPa 0,0 mm 14,1 km/h (3 Bft) N45 350 -6,0 C 9,8 C
24.09.2018 14:26 13,4 C 26 % 1031 hPa 0,0 mm 12,1 km/h (2 Bft) N-NW67.5 335 -5,7 C 10,4 C
24.09.2018 14:21 13,0 C 31 % 1031 hPa 0,0 mm 10,2 km/h (2 Bft) NW45 315 -3,7 C 10,8 C
24.09.2018 14:16 13,0 C 31 % 1031 hPa 0,0 mm 8,5 km/h (2 Bft) NW22.5 315 -3,7 C 11,7 C
24.09.2018 14:11 12,8 C 31 % 1031 hPa 0,0 mm 10,8 km/h (2 Bft) NW22.5 320 -3,9 C 10,3 C
24.09.2018 14:06 13,2 C 31 % 1031 hPa 0,0 mm 10,3 km/h (2 Bft) N-NW45 330 -3,5 C 11,0 C
24.09.2018 14:01 13,2 C 31 % 1031 hPa 0,0 mm 10,0 km/h (2 Bft) NW67.5 315 -3,5 C 11,1 C
24.09.2018 13:56 13,3 C 31 % 1031 hPa 0,0 mm 9,4 km/h (2 Bft) N-NW45 335 -3,5 C 11,5 C
24.09.2018 13:51 12,8 C 31 % 1031 hPa 0,0 mm 10,8 km/h (2 Bft) NW45 320 -3,9 C 10,3 C
24.09.2018 13:46 12,4 C 31 % 1031 hPa 0,0 mm 12,7 km/h (3 Bft) NW45 310 -4,2 C 9,0 C
24.09.2018 13:41 12,2 C 32 % 1031 hPa 0,0 mm 9,0 km/h (2 Bft) NW45 320 -4,0 C 10,6 C
24.09.2018 13:36 12,4 C 31 % 1031 hPa 0,0 mm 9,9 km/h (2 Bft) NW45 320 -4,2 C 10,3 C
24.09.2018 13:31 13,0 C 31 % 1031 hPa 0,0 mm 9,4 km/h (2 Bft) N45 350 -3,7 C 11,2 C
24.09.2018 13:26 12,8 C 31 % 1031 hPa 0,0 mm 8,7 km/h (2 Bft) N-NW22.5 345 -3,9 C 11,4 C
24.09.2018 13:21 12,5 C 31 % 1031 hPa 0,0 mm 10,8 km/h (2 Bft) N-NW22.5 335 -4,2 C 10,0 C
24.09.2018 13:16 12,7 C 29 % 1031 hPa 0,0 mm 3,7 km/h (1 Bft) W-NW67.5 295 -4,9 C 12,7 C
24.09.2018 13:11 12,7 C 29 % 1031 hPa 0,0 mm 10,8 km/h (2 Bft) NW45 305 -4,9 C 10,2 C
24.09.2018 13:06 12,5 C 28 % 1031 hPa 0,0 mm 12,2 km/h (2 Bft) NW22.5 320 -5,5 C 9,3 C
24.09.2018 13:01 12,8 C 29 % 1031 hPa 0,0 mm 6,7 km/h (2 Bft) W-NW45 285 -4,8 C 12,6 C
24.09.2018 12:56 12,7 C 28 % 1031 hPa 0,0 mm 8,3 km/h (2 Bft) NW22.5 325 -5,3 C 11,5 C
24.09.2018 12:51 12,5 C 28 % 1031 hPa 0,0 mm 7,2 km/h (2 Bft) NW22.5 310 -5,5 C 12,0 C
24.09.2018 12:46 12,3 C 28 % 1031 hPa 0,0 mm 9,5 km/h (2 Bft) NW45 320 -5,7 C 10,4 C
24.09.2018 12:41 12,4 C 28 % 1031 hPa 0,0 mm 12,3 km/h (3 Bft) N-NW45 340 -5,6 C 9,1 C
24.09.2018 12:36 12,7 C 29 % 1031 hPa 0,0 mm 13,2 km/h (3 Bft) NW22.5 325 -4,9 C 9,1 C
24.09.2018 12:31 12,7 C 34 % 1031 hPa 0,0 mm 8,2 km/h (2 Bft) NW22.5 305 -2,7 C 11,6 C
24.09.2018 12:26 12,4 C 33 % 1031 hPa 0,0 mm 12,7 km/h (3 Bft) NW45 325 -3,4 C 9,0 C
24.09.2018 12:21 12,3 C 31 % 1031 hPa 0,0 mm 16,1 km/h (3 Bft) N-NW67.5 335 -4,3 C 7,5 C
24.09.2018 12:16 12,2 C 33 % 1031 hPa 0,0 mm 10,6 km/h (2 Bft) N-NW45 340 -3,6 C 9,7 C
24.09.2018 12:11 11,8 C 34 % 1031 hPa 0,0 mm 16,0 km/h (3 Bft) N-NW22.5 335 -3,5 C 6,9 C
24.09.2018 12:06 11,6 C 33 % 1031 hPa 0,0 mm 14,2 km/h (3 Bft) NW67.5 305 -4,1 C 7,4 C
24.09.2018 12:01 12,2 C 34 % 1031 hPa 0,0 mm 8,1 km/h (2 Bft) N-NW67.5 335 -3,2 C 11,1 C
24.09.2018 11:56 12,6 C 35 % 1031 hPa 0,0 mm 9,7 km/h (2 Bft) N-NW45 330 -2,4 C 10,6 C
24.09.2018 11:51 12,6 C 35 % 1031 hPa 0,0 mm 8,7 km/h (2 Bft) NW22.5 320 -2,4 C 11,2 C
24.09.2018 11:46 12,6 C 36 % 1031 hPa 0,0 mm 9,0 km/h (2 Bft) NW67.5 315 -2,1 C 11,0 C
24.09.2018 11:41 12,3 C 37 % 1031 hPa 0,0 mm 7,0 km/h (2 Bft) NW45 310 -2,0 C 11,9 C
24.09.2018 11:36 11,8 C 40 % 1031 hPa 0,0 mm 10,5 km/h (2 Bft) NW67.5 325 -1,3 C 9,3 C
24.09.2018 11:31 11,9 C 38 % 1031 hPa 0,0 mm 11,9 km/h (2 Bft) NW67.5 305 -2,0 C 8,7 C
24.09.2018 11:26 12,1 C 36 % 1031 hPa 0,0 mm 11,9 km/h (2 Bft) NW67.5 305 -2,5 C 9,0 C
24.09.2018 11:21 12,1 C 38 % 1031 hPa 0,0 mm 7,2 km/h (2 Bft) N-NW67.5 340 -1,8 C 11,6 C
24.09.2018 11:16 11,7 C 40 % 1031 hPa 0,0 mm 6,2 km/h (2 Bft) NW67.5 320 -1,4 C 11,7 C
24.09.2018 11:11 11,5 C 38 % 1031 hPa 0,0 mm 10,1 km/h (2 Bft) N-NW22.5 330 -2,3 C 9,2 C
24.09.2018 11:06 11,5 C 42 % 1031 hPa 0,0 mm 5,9 km/h (2 Bft) N-NW22.5 330 -1,0 C 11,5 C
24.09.2018 11:01 10,8 C 45 % 1031 hPa 0,0 mm 8,0 km/h (2 Bft) NW22.5 315 -0,6 C 9,7 C
24.09.2018 10:56 10,4 C 45 % 1031 hPa 0,0 mm 2,0 km/h (1 Bft) N 350 -1,0 C 10,4 C
24.09.2018 10:51 9,9 C 45 % 1031 hPa 0,0 mm 8,7 km/h (2 Bft) N-NW22.5 340 -1,5 C 8,3 C
24.09.2018 10:46 10,1 C 45 % 1031 hPa 0,0 mm 2,3 km/h (1 Bft) W22.5 280 -1,3 C 10,1 C
24.09.2018 10:41 10,2 C 45 % 1031 hPa 0,0 mm 12,4 km/h (3 Bft) NW22.5 325 -1,2 C 6,5 C
24.09.2018 10:36 10,3 C 46 % 1031 hPa 0,0 mm 2,4 km/h (1 Bft) NW22.5 325 -0,8 C 10,3 C
24.09.2018 10:31 10,3 C 46 % 1031 hPa 0,0 mm 8,7 km/h (2 Bft) NW45 310 -0,8 C 8,7 C
24.09.2018 10:26 10,6 C 46 % 1031 hPa 0,0 mm 5,5 km/h (1 Bft) NW22.5 320 -0,5 C 10,6 C
24.09.2018 10:21 11,0 C 45 % 1031 hPa 0,0 mm 9,8 km/h (2 Bft) NW22.5 320 -0,5 C 8,8 C
24.09.2018 10:16 11,0 C 45 % 1031 hPa 0,0 mm 7,0 km/h (2 Bft) NW67.5 315 -0,5 C 10,6 C
24.09.2018 10:11 11,0 C 49 % 1031 hPa 0,0 mm 0,5 km/h (0 Bft) N-NW 340 0,7 C 11,0 C
24.09.2018 10:06 10,7 C 50 % 1031 hPa 0,0 mm 0,5 km/h (0 Bft) N-NW 340 0,7 C 10,7 C
24.09.2018 10:01 10,5 C 53 % 1030 hPa 0,0 mm 0,6 km/h (0 Bft) N 355 1,3 C 10,5 C
24.09.2018 09:56 9,9 C 54 % 1030 hPa 0,0 mm 0,0 km/h (0 Bft) N 350 1,0 C 9,9 C
24.09.2018 09:51 9,6 C 55 % 1030 hPa 0,0 mm 0,7 km/h (0 Bft) N 350 1,0 C 9,6 C
24.09.2018 09:46 9,2 C 56 % 1030 hPa 0,0 mm 5,9 km/h (2 Bft) N22.5 350 0,9 C 9,2 C
24.09.2018 09:41 9,0 C 55 % 1030 hPa 0,0 mm 8,0 km/h (2 Bft) N-NW22.5 330 0,5 C 7,8 C
24.09.2018 09:36 9,1 C 56 % 1030 hPa 0,0 mm 10,6 km/h (2 Bft) N-NW22.5 340 0,8 C 6,2 C
24.09.2018 09:31 9,1 C 56 % 1030 hPa 0,0 mm 8,5 km/h (2 Bft) N-NW22.5 335 0,8 C 7,6 C
24.09.2018 09:26 9,2 C 56 % 1030 hPa 0,0 mm 8,6 km/h (2 Bft) NW 320 0,9 C 7,6 C
24.09.2018 09:21 9,3 C 56 % 1030 hPa 0,0 mm 8,7 km/h (2 Bft) NW67.5 320 1,0 C 7,6 C
24.09.2018 09:16 9,5 C 58 % 1030 hPa 0,0 mm 9,3 km/h (2 Bft) W-NW45 300 1,7 C 7,5 C
24.09.2018 09:11 9,4 C 58 % 1030 hPa 0,0 mm 7,6 km/h (2 Bft) NW22.5 325 1,6 C 8,5 C
24.09.2018 09:06 9,5 C 59 % 1030 hPa 0,0 mm 9,4 km/h (2 Bft) N-NW22.5 340 1,9 C 7,4 C
24.09.2018 09:01 9,6 C 60 % 1030 hPa 0,0 mm 4,3 km/h (1 Bft) N-NW 340 2,2 C 9,6 C
24.09.2018 08:56 9,5 C 63 % 1029 hPa 0,0 mm 0,7 km/h (0 Bft) N-NW 340 2,8 C 9,5 C
24.09.2018 08:51 8,6 C 69 % 1029 hPa 0,0 mm 6,5 km/h (2 Bft) N-NW 340 3,2 C 8,5 C
24.09.2018 08:46 8,6 C 69 % 1029 hPa 0,0 mm 9,6 km/h (2 Bft) NW22.5 325 3,2 C 6,3 C
24.09.2018 08:41 8,4 C 71 % 1029 hPa 0,0 mm 11,4 km/h (2 Bft) N-NW22.5 335 3,5 C 5,0 C
24.09.2018 08:36 8,1 C 75 % 1029 hPa 0,0 mm 17,7 km/h (3 Bft) NW22.5 325 3,9 C 1,7 C
24.09.2018 08:31 8,0 C 76 % 1029 hPa 0,0 mm 11,3 km/h (2 Bft) N-NW22.5 330 4,0 C 4,6 C
24.09.2018 08:26 7,7 C 79 % 1029 hPa 0,0 mm 11,0 km/h (2 Bft) NW45 315 4,3 C 4,4 C
24.09.2018 08:21 7,4 C 80 % 1029 hPa 0,0 mm 14,3 km/h (3 Bft) NW22.5 325 4,2 C 2,3 C
24.09.2018 08:16 7,3 C 81 % 1029 hPa 0,0 mm 11,3 km/h (2 Bft) N-NW22.5 340 4,3 C 3,8 C
24.09.2018 08:11 7,0 C 84 % 1029 hPa 0,0 mm 12,3 km/h (3 Bft) N-NW22.5 330 4,5 C 2,9 C
24.09.2018 08:06 6,8 C 86 % 1029 hPa 0,0 mm 13,1 km/h (3 Bft) NW22.5 325 4,6 C 2,2 C
24.09.2018 08:00 6,5 C 88 % 1029 hPa 0,0 mm 6,8 km/h (2 Bft) N-NW22.5 330 4,7 C 6,2 C
24.09.2018 07:55 6,3 C 88 % 1028 hPa 0,0 mm 3,6 km/h (1 Bft) NW 325 4,5 C 6,3 C
24.09.2018 07:50 6,0 C 89 % 1028 hPa 0,0 mm 6,5 km/h (2 Bft) NW22.5 315 4,3 C 5,9 C
24.09.2018 07:45 5,9 C 89 % 1028 hPa 0,0 mm 7,6 km/h (2 Bft) N-NW22.5 330 4,2 C 4,9 C
24.09.2018 07:40 5,9 C 89 % 1028 hPa 0,0 mm 12,4 km/h (3 Bft) NW22.5 325 4,2 C 1,6 C
24.09.2018 07:35 5,9 C 89 % 1028 hPa 0,0 mm 6,1 km/h (2 Bft) N-NW22.5 330 4,2 C 5,9 C
24.09.2018 07:30 6,0 C 88 % 1028 hPa 0,0 mm 3,1 km/h (1 Bft) N-NW 330 4,2 C 6,0 C
24.09.2018 07:25 6,0 C 88 % 1028 hPa 0,0 mm 3,4 km/h (1 Bft) N-NW 330 4,2 C 6,0 C
24.09.2018 07:20 6,0 C 88 % 1028 hPa 0,0 mm 3,4 km/h (1 Bft) N-NW 330 4,2 C 6,0 C
24.09.2018 07:15 6,1 C 88 % 1028 hPa 0,0 mm 3,4 km/h (1 Bft) N-NW 330 4,3 C 6,1 C
24.09.2018 07:10 6,2 C 88 % 1028 hPa 0,0 mm 0,5 km/h (0 Bft) N-NW 330 4,4 C 6,2 C
24.09.2018 07:05 6,2 C 88 % 1028 hPa 0,0 mm 1,5 km/h (1 Bft) N-NW 335 4,4 C 6,2 C
24.09.2018 07:00 6,3 C 88 % 1027 hPa 0,0 mm 0,2 km/h (0 Bft) N 350 4,5 C 6,3 C
24.09.2018 06:55 6,4 C 87 % 1027 hPa 0,0 mm 2,0 km/h (1 Bft) N 350 4,4 C 6,4 C
24.09.2018 06:50 6,4 C 87 % 1027 hPa 0,0 mm 0,0 km/h (0 Bft) N 350 4,4 C 6,4 C
24.09.2018 06:45 6,5 C 87 % 1027 hPa 0,0 mm 0,1 km/h (0 Bft) N 350 4,5 C 6,5 C
24.09.2018 06:40 6,6 C 87 % 1027 hPa 0,0 mm 7,0 km/h (2 Bft) N-NW22.5 340 4,6 C 6,1 C
24.09.2018 06:35 6,5 C 87 % 1027 hPa 0,0 mm 4,7 km/h (1 Bft) N-NW 330 4,5 C 6,5 C
24.09.2018 06:30 6,6 C 87 % 1027 hPa 0,0 mm 1,0 km/h (0 Bft) NW 320 4,6 C 6,6 C
24.09.2018 06:25 6,5 C 87 % 1027 hPa 0,0 mm 10,2 km/h (2 Bft) NW 315 4,5 C 3,6 C
24.09.2018 06:20 6,5 C 87 % 1027 hPa 0,0 mm 9,4 km/h (2 Bft) N-NW22.5 335 4,5 C 4,1 C
24.09.2018 06:15 6,4 C 87 % 1027 hPa 0,0 mm 2,1 km/h (1 Bft) N-NW22.5 340 4,4 C 6,4 C
24.09.2018 06:10 6,4 C 87 % 1027 hPa 0,0 mm 7,2 km/h (2 Bft) N-NW 335 4,4 C 5,7 C
24.09.2018 06:05 6,3 C 87 % 1027 hPa 0,0 mm 8,7 km/h (2 Bft) N-NW22.5 335 4,3 C 4,4 C
24.09.2018 06:00 6,3 C 87 % 1027 hPa 0,0 mm 4,2 km/h (1 Bft) N 355 4,3 C 6,3 C
24.09.2018 05:55 6,3 C 87 % 1026 hPa 0,0 mm 7,1 km/h (2 Bft) N-NW22.5 340 4,3 C 5,7 C
24.09.2018 05:50 6,3 C 87 % 1026 hPa 0,0 mm 7,8 km/h (2 Bft) N-NW22.5 335 4,3 C 5,1 C
24.09.2018 05:45 6,3 C 87 % 1026 hPa 0,0 mm 8,8 km/h (2 Bft) NW22.5 315 4,3 C 4,4 C
24.09.2018 05:40 6,3 C 86 % 1026 hPa 0,0 mm 13,5 km/h (3 Bft) NW22.5 325 4,1 C 1,4 C
24.09.2018 05:35 6,3 C 86 % 1026 hPa 0,0 mm 11,8 km/h (2 Bft) NW22.5 315 4,1 C 2,4 C
24.09.2018 05:30 6,3 C 86 % 1026 hPa 0,0 mm 12,0 km/h (2 Bft) NW22.5 320 4,1 C 2,3 C
24.09.2018 05:25 6,4 C 85 % 1026 hPa 0,0 mm 8,5 km/h (2 Bft) NW 325 4,1 C 4,7 C
24.09.2018 05:20 6,4 C 85 % 1026 hPa 0,0 mm 8,8 km/h (2 Bft) NW67.5 325 4,1 C 4,5 C
24.09.2018 05:15 6,4 C 85 % 1026 hPa 0,0 mm 9,6 km/h (2 Bft) N-NW22.5 330 4,1 C 3,9 C
24.09.2018 05:10 6,5 C 85 % 1026 hPa 0,0 mm 6,3 km/h (2 Bft) N-NW22.5 330 4,2 C 6,5 C
24.09.2018 05:05 6,6 C 85 % 1026 hPa 0,0 mm 11,8 km/h (2 Bft) NW22.5 320 4,3 C 2,7 C
24.09.2018 05:00 6,7 C 85 % 1026 hPa 0,0 mm 10,3 km/h (2 Bft) N-NW22.5 335 4,4 C 3,8 C
24.09.2018 04:55 6,7 C 84 % 1026 hPa 0,0 mm 7,1 km/h (2 Bft) N-NW22.5 335 4,2 C 6,1 C
24.09.2018 04:50 6,8 C 84 % 1026 hPa 0,0 mm 8,5 km/h (2 Bft) NW22.5 325 4,3 C 5,1 C
24.09.2018 04:45 6,8 C 84 % 1026 hPa 0,0 mm 8,9 km/h (2 Bft) NW22.5 325 4,3 C 4,8 C
24.09.2018 04:40 6,8 C 84 % 1025 hPa 0,0 mm 11,8 km/h (2 Bft) N-NW22.5 335 4,3 C 2,9 C
24.09.2018 04:35 6,8 C 84 % 1025 hPa 0,0 mm 6,1 km/h (2 Bft) NW22.5 315 4,3 C 6,8 C
24.09.2018 04:30 6,8 C 84 % 1025 hPa 0,0 mm 12,0 km/h (2 Bft) N-NW22.5 330 4,3 C 2,8 C
24.09.2018 04:25 6,8 C 84 % 1025 hPa 0,0 mm 9,1 km/h (2 Bft) N-NW22.5 330 4,3 C 4,7 C
24.09.2018 04:20 6,8 C 84 % 1025 hPa 0,0 mm 13,1 km/h (3 Bft) NW22.5 325 4,3 C 2,2 C
24.09.2018 04:15 6,8 C 84 % 1025 hPa 0,0 mm 10,0 km/h (2 Bft) NW22.5 320 4,3 C 4,1 C
24.09.2018 04:10 6,9 C 84 % 1025 hPa 0,0 mm 11,9 km/h (2 Bft) NW45 310 4,4 C 3,0 C
24.09.2018 04:05 6,8 C 84 % 1025 hPa 0,0 mm 14,3 km/h (3 Bft) NW22.5 320 4,3 C 1,6 C
24.09.2018 04:00 6,9 C 84 % 1025 hPa 0,0 mm 11,5 km/h (2 Bft) NW22.5 320 4,4 C 3,2 C
24.09.2018 03:55 6,9 C 84 % 1025 hPa 0,0 mm 11,4 km/h (2 Bft) N-NW22.5 330 4,4 C 3,3 C
24.09.2018 03:50 6,9 C 84 % 1025 hPa 0,0 mm 10,6 km/h (2 Bft) NW22.5 325 4,4 C 3,8 C
24.09.2018 03:45 6,9 C 84 % 1025 hPa 0,0 mm 12,9 km/h (3 Bft) NW22.5 320 4,4 C 2,4 C
24.09.2018 03:40 6,9 C 82 % 1025 hPa 0,0 mm 11,6 km/h (2 Bft) NW45 320 4,0 C 3,2 C
24.09.2018 03:35 6,9 C 82 % 1025 hPa 0,0 mm 8,9 km/h (2 Bft) NW22.5 320 4,0 C 4,9 C
24.09.2018 03:30 6,9 C 82 % 1025 hPa 0,0 mm 9,8 km/h (2 Bft) NW22.5 325 4,0 C 4,3 C
24.09.2018 03:25 7,0 C 81 % 1025 hPa 0,0 mm 12,6 km/h (3 Bft) NW22.5 320 4,0 C 2,7 C
24.09.2018 03:20 7,0 C 81 % 1025 hPa 0,0 mm 7,4 km/h (2 Bft) NW22.5 305 4,0 C 6,2 C
24.09.2018 03:15 7,0 C 81 % 1025 hPa 0,0 mm 15,1 km/h (3 Bft) NW22.5 315 4,0 C 1,5 C
24.09.2018 03:10 7,1 C 81 % 1025 hPa 0,0 mm 15,6 km/h (3 Bft) NW22.5 320 4,1 C 1,3 C
24.09.2018 03:05 7,2 C 81 % 1025 hPa 0,0 mm 15,8 km/h (3 Bft) NW22.5 320 4,2 C 1,4 C
24.09.2018 03:00 7,2 C 81 % 1025 hPa 0,0 mm 12,2 km/h (2 Bft) N-NW67.5 330 4,2 C 3,2 C
_ Min-Zeit 07:35 17:05 03:00 - 06:50 - - 17:05 03:10
Minimum _ 5,9 C 23 % 1025 hPa - 0,0 km/h (0 Bft) - - -7,6 C 1,3 C
_ Max-Zeit 15:06 07:35 21:35 03:00 08:36 - - 08:00 14:46
Maximum _ 13,7 C 89 % 1033 hPa 0,0 mm 17,7 km/h
NW (3 Bft)
- - 4,7 C 13,5 C
Durchschnitt _ 9,4 C 54 % 1030 hPa #0,0 mm 6,8 km/h (2 Bft) NW - -0,7 C 7,9 C